< Cyclone 198206 1982 Season Cyclone 198208 >
Cyclone 198207 (DAPHNE-FIFI)
General InformationTrack Information on Google MapsList of All Images || ResourceGoogle EarthGE AnimationAtom FeedGeoJSON
Detalied Best Track (Time Zone = UTC)
Year Month Day Hour Lat. Long. Pressure (hPa) Wind (kt) Class Image Chart
1982 1 10 18 -7.0 94.0 1006 0 0 Image --
1982 1 11 00 -6.9 94.3 1005 0 0 Image --
1982 1 11 06 -7.0 94.5 1004 0 0 Image --
1982 1 11 12 -7.0 94.7 1003 0 0 Image --
1982 1 11 18 -7.2 94.9 1003 0 0 Image --
1982 1 12 00 -7.3 95.0 1000 0 0 Image --
1982 1 12 06 -7.5 95.1 998 0 0 Image --
1982 1 12 12 -7.7 95.1 994 0 0 Image --
1982 1 12 18 -8.0 95.2 994 0 0 Image --
1982 1 13 00 -8.4 95.2 988 0 0 Image --
1982 1 13 06 -8.6 95.2 988 0 0 Image --
1982 1 13 12 -8.9 95.4 988 0 0 Image --
1982 1 13 18 -9.3 95.7 988 0 0 Image --
1982 1 14 00 -9.7 96.0 988 0 0 Image --
1982 1 14 06 -10.2 96.2 990 0 0 Image --
1982 1 14 12 -10.5 96.3 994 0 0 Image --
1982 1 14 18 -10.7 96.3 994 0 0 Image --
1982 1 15 00 -11.1 96.3 994 0 0 Image --
1982 1 15 06 -11.3 96.7 994 0 0 Image --
1982 1 15 12 -11.4 97.1 994 0 0 Image --
1982 1 15 18 -11.5 97.5 992 0 0 Image --
1982 1 16 00 -11.6 97.9 989 0 0 Image --
1982 1 16 06 -11.6 98.5 986 0 0 Image --
1982 1 16 12 -11.6 99.5 986 0 0 Image --
1982 1 16 18 -11.6 100.5 986 0 0 Image --
1982 1 17 00 -11.6 101.4 986 0 0 Image --
1982 1 17 06 -11.6 102.2 988 0 0 Image --
1982 1 17 12 -11.5 102.7 988 0 0 Image --
1982 1 17 18 -11.5 103.3 988 0 0 Image --
1982 1 18 00 -11.4 104.0 988 0 0 Image --
1982 1 18 06 -11.3 104.7 988 0 0 Image --
1982 1 18 12 -11.4 105.4 988 0 0 Image --
1982 1 18 18 -11.7 106.1 990 0 0 Image --
1982 1 19 06 -12.4 108.0 990 0 0 Image --
1982 1 19 12 -12.7 108.9 990 0 0 Image --
1982 1 19 18 -13.2 110.8 990 0 0 Image --
1982 1 20 00 -14.0 112.8 992 0 0 Image --
1982 1 20 06 -15.5 114.8 994 0 0 Image --
1982 1 20 12 -17.5 117.4 994 0 0 Image --
1982 1 20 15 -18.1 118.3 994 0 0 Image --
1982 1 20 18 -18.5 119.0 994 0 0 Image --
1982 1 20 21 -18.7 119.7 994 0 0 Image --
1982 1 21 00 -19.1 120.1 994 0 0 Image --
1982 1 21 03 -19.4 120.2 995 0 0 Image --
1982 1 21 06 -19.7 120.3 996 0 0 Image --
1982 1 21 09 -20.1 120.4 997 0 0 Image --
< Cyclone 198206 1982 Season Cyclone 198208 >

Help